Time;durP1;ratioP1;P1;durP2;ratioP2;P2;SDS_P1;SDS_P2;PMS_P1;PMS_P2;Temp;Humidity;BMP_temperature;BMP_pressure;BME280_temperature;BME280_humidity;BME280_pressure;Samples;Min_cycle;Max_cycle;Signal;HPM_P1;HPM_P2
2023/08/18 00:01:30;;;;;;;16.00;7.68;;;;;;;-142.57;65.29;115900.28;5013718;28;20100;-81
2023/08/18 00:03:56;;;;;;;18.42;7.40;;;;;;;-142.57;65.92;115900.28;5013952;28;20040;-80
2023/08/18 00:06:22;;;;;;;18.38;7.32;;;;;;;-142.57;65.63;115900.28;5012117;28;20065;-81
2023/08/18 00:08:47;;;;;;;18.95;7.10;;;;;;;-142.57;64.85;115900.28;5013609;28;20049;-79
2023/08/18 00:11:13;;;;;;;17.33;6.88;;;;;;;-142.57;64.27;115900.28;5013774;28;20396;-80
2023/08/18 00:13:38;;;;;;;14.82;6.50;;;;;;;-142.57;63.92;115900.28;5014397;28;20439;-80
2023/08/18 00:16:04;;;;;;;21.50;7.15;;;;;;;-142.57;64.86;115900.28;5030238;28;20057;-82
2023/08/18 00:18:30;;;;;;;19.13;7.30;;;;;;;-142.57;64.27;115900.28;5014382;28;20034;-80
2023/08/18 00:20:55;;;;;;;22.63;7.43;;;;;;;-142.57;65.75;115900.28;5013996;28;20042;-81
2023/08/18 00:23:21;;;;;;;16.10;6.85;;;;;;;-142.57;65.17;115900.28;5014010;28;20073;-82
2023/08/18 00:25:47;;;;;;;15.30;6.38;;;;;;;-142.57;64.68;115900.28;5013109;28;20073;-81
2023/08/18 00:28:13;;;;;;;19.58;6.35;;;;;;;-142.57;63.66;115900.28;5013495;28;20121;-82
2023/08/18 00:30:38;;;;;;;24.42;6.68;;;;;;;-142.57;63.50;115900.28;5013777;28;20037;-81
2023/08/18 00:33:04;;;;;;;15.45;6.28;;;;;;;-142.57;63.37;115900.28;5013507;28;20089;-82
2023/08/18 00:35:34;;;;;;;18.85;6.43;;;;;;;-142.57;62.76;115900.28;5012444;28;20033;-81
2023/08/18 00:38:00;;;;;;;14.55;5.57;;;;;;;-142.57;62.62;115900.28;5013285;28;20402;-78
2023/08/18 00:40:26;;;;;;;16.40;5.30;;;;;;;-142.57;61.58;115900.28;5014223;28;20038;-80
2023/08/18 00:42:52;;;;;;;18.38;5.53;;;;;;;-142.57;61.07;115900.28;5016883;28;20033;-81
2023/08/18 00:45:20;;;;;;;19.55;5.80;;;;;;;-142.57;59.65;115900.28;5023250;28;20061;-80
2023/08/18 00:47:46;;;;;;;15.18;5.03;;;;;;;-142.57;59.38;115900.28;5012977;28;20068;-81
2023/08/18 00:50:14;;;;;;;15.52;5.25;;;;;;;-142.57;60.15;115900.28;5041000;28;20045;-80
2023/08/18 00:52:42;;;;;;;21.65;5.65;;;;;;;-142.57;59.84;115900.28;5040412;28;20049;-81
2023/08/18 00:55:11;;;;;;;18.55;5.65;;;;;;;-142.57;60.58;115900.28;5025619;28;20042;-80
2023/08/18 00:57:39;;;;;;;12.35;4.85;;;;;;;-142.57;61.11;115900.28;5017611;28;20100;-80
2023/08/18 01:00:05;;;;;;;17.83;5.55;;;;;;;-142.57;61.12;115900.28;5017495;28;20037;-79
2023/08/18 01:02:30;;;;;;;16.88;5.55;;;;;;;-142.57;60.68;115900.28;5017090;28;20022;-79
2023/08/18 01:05:00;;;;;;;21.27;5.60;;;;;;;-142.57;61.63;115900.28;5016054;28;20060;-80
2023/08/18 01:07:26;;;;;;;17.70;5.63;;;;;;;-142.57;60.99;115900.28;5016868;28;20041;-79
2023/08/18 01:09:53;;;;;;;10.63;5.30;;;;;;;-142.57;61.88;115900.28;5016380;28;20049;-80
2023/08/18 01:12:50;;;;;;;11.35;4.90;;;;;;;-142.57;62.50;115900.28;5017204;28;20141;-79
2023/08/18 01:15:22;;;;;;;19.42;4.85;;;;;;;-142.57;62.60;115900.28;5016050;28;20040;-80
2023/08/18 01:18:06;;;;;;;9.63;5.03;;;;;;;-142.57;63.31;115900.28;5016110;28;20489;-80
2023/08/18 01:20:32;;;;;;;15.52;5.07;;;;;;;-142.57;63.17;115900.28;5017284;28;20069;-81
2023/08/18 01:23:04;;;;;;;14.70;5.30;;;;;;;-142.57;63.60;115900.28;5017095;28;20030;-81
2023/08/18 01:25:31;;;;;;;9.63;5.13;;;;;;;-142.57;64.14;115900.28;5015385;28;20448;-81
2023/08/18 01:27:59;;;;;;;12.73;5.68;;;;;;;-142.57;63.99;115900.28;5015334;28;20033;-79
2023/08/18 01:30:34;;;;;;;13.73;6.07;;;;;;;-142.57;65.29;115900.28;5016862;28;20034;-80
2023/08/18 01:33:21;;;;;;;13.88;5.80;;;;;;;-142.57;65.14;115900.28;5015803;28;20119;-81
2023/08/18 01:35:49;;;;;;;9.65;5.50;;;;;;;-142.57;66.95;115900.28;5016669;28;20069;-81
2023/08/18 01:38:15;;;;;;;14.77;6.03;;;;;;;-142.57;67.22;115900.28;5016612;28;20548;-80
2023/08/18 01:40:42;;;;;;;14.70;5.38;;;;;;;-142.57;66.71;115900.28;5015811;28;20041;-81
2023/08/18 01:43:09;;;;;;;12.90;5.75;;;;;;;-142.57;65.77;115900.28;5014782;28;20049;-80
2023/08/18 01:45:36;;;;;;;13.05;5.65;;;;;;;-142.57;66.43;115900.28;5015550;28;20038;-80
2023/08/18 01:48:02;;;;;;;12.40;5.63;;;;;;;-142.57;66.00;115900.28;4998113;28;20395;-80
2023/08/18 01:50:28;;;;;;;14.27;5.32;;;;;;;-142.57;66.61;115900.28;5014520;28;20120;-79
2023/08/18 01:52:55;;;;;;;7.57;4.82;;;;;;;-142.57;66.73;115900.28;5014218;28;20491;-82
2023/08/18 01:55:21;;;;;;;16.88;6.28;;;;;;;-142.57;67.44;115900.28;5015106;28;20045;-80
2023/08/18 01:57:47;;;;;;;14.75;5.63;;;;;;;-142.57;67.05;115900.28;5015189;28;20117;-80
2023/08/18 02:00:12;;;;;;;20.15;6.32;;;;;;;-142.57;67.07;115900.28;5016524;28;20428;-81
2023/08/18 02:02:41;;;;;;;13.52;5.65;;;;;;;-142.57;67.96;115900.28;5020340;28;20030;-81
2023/08/18 02:05:06;;;;;;;18.92;5.50;;;;;;;-142.57;67.71;115900.28;5019610;28;20088;-80
2023/08/18 02:07:33;;;;;;;18.15;5.25;;;;;;;-142.57;66.78;115900.28;5017176;28;20034;-81
2023/08/18 02:10:01;;;;;;;13.02;5.18;;;;;;;-142.57;66.39;115900.28;5017842;28;20142;-81
2023/08/18 02:12:26;;;;;;;10.68;5.22;;;;;;;-142.57;66.60;115900.28;5016849;28;20046;-81
2023/08/18 02:14:52;;;;;;;13.52;4.47;;;;;;;-142.57;66.04;115900.28;5017066;28;20075;-81
2023/08/18 02:17:18;;;;;;;13.25;4.72;;;;;;;-142.57;65.19;115900.28;5018841;28;20515;-80
2023/08/18 02:19:45;;;;;;;10.88;4.80;;;;;;;-142.57;66.39;115900.28;5018410;28;20053;-80
2023/08/18 02:22:10;;;;;;;10.60;5.25;;;;;;;-142.57;66.45;115900.28;5019387;28;20416;-80
2023/08/18 02:24:36;;;;;;;11.93;5.10;;;;;;;-142.57;66.26;115900.28;5018109;28;20073;-81
2023/08/18 02:27:01;;;;;;;12.98;5.25;;;;;;;-142.57;66.38;115900.28;5019083;28;20469;-80
2023/08/18 02:29:27;;;;;;;19.35;5.22;;;;;;;-142.57;66.67;115900.28;5016502;28;20099;-80
2023/08/18 02:31:53;;;;;;;15.25;5.05;;;;;;;-142.57;66.28;115900.28;5017294;28;20535;-79
2023/08/18 02:34:19;;;;;;;12.00;5.82;;;;;;;-142.57;66.34;115900.28;5016176;28;20061;-80
2023/08/18 02:36:44;;;;;;;16.55;5.78;;;;;;;-142.57;66.57;115900.28;5018280;28;20057;-80
2023/08/18 02:39:10;;;;;;;15.70;5.07;;;;;;;-142.57;66.72;115900.28;5018733;28;20049;-80
2023/08/18 02:41:36;;;;;;;13.68;4.97;;;;;;;-142.57;66.01;115900.28;5016774;28;20069;-80
2023/08/18 02:44:03;;;;;;;12.88;5.28;;;;;;;-142.57;66.04;115900.28;4999446;28;20021;-80
2023/08/18 02:46:29;;;;;;;16.40;5.15;;;;;;;-142.57;66.46;115900.28;5013383;28;20037;-80
2023/08/18 02:49:00;;;;;;;12.52;4.63;;;;;;;-142.57;66.54;115900.28;5014828;28;20030;-83
2023/08/18 02:51:26;;;;;;;16.57;5.00;;;;;;;-142.57;65.66;115900.28;5013046;28;20477;-81
2023/08/18 02:54:03;;;;;;;13.60;5.25;;;;;;;-142.57;65.54;115900.28;5014415;28;20034;-83
2023/08/18 02:56:31;;;;;;;16.05;5.03;;;;;;;-142.57;65.69;115900.28;5013297;28;20152;-81
2023/08/18 02:58:59;;;;;;;14.95;4.70;;;;;;;-142.57;65.27;115900.28;5014476;28;20030;-82
2023/08/18 03:01:27;;;;;;;13.75;4.45;;;;;;;-142.57;66.21;115900.28;4996831;28;20042;-83
2023/08/18 03:03:55;;;;;;;13.48;4.68;;;;;;;-142.57;65.60;115900.28;4997071;28;20037;-84
2023/08/18 03:06:26;;;;;;;11.68;4.95;;;;;;;-142.57;66.14;115900.28;5013710;28;20038;-83
2023/08/18 03:08:52;;;;;;;13.55;5.22;;;;;;;-142.57;66.02;115900.28;5013105;28;20531;-84
2023/08/18 03:11:27;;;;;;;17.75;5.43;;;;;;;-142.57;66.43;115900.28;5013469;28;20127;-82
2023/08/18 03:13:53;;;;;;;10.60;5.28;;;;;;;-142.57;66.27;115900.28;5013705;28;20049;-84
2023/08/18 03:16:26;;;;;;;15.00;4.88;;;;;;;-142.57;66.81;115900.28;5015056;28;20060;-83
2023/08/18 03:18:53;;;;;;;9.55;4.90;;;;;;;-142.57;66.40;115900.28;5017857;28;20100;-82
2023/08/18 03:21:18;;;;;;;16.80;5.35;;;;;;;-142.57;65.81;115900.28;5018928;28;20042;-83
2023/08/18 03:23:43;;;;;;;10.57;4.63;;;;;;;-142.57;66.13;115900.28;5016984;28;20037;-84
2023/08/18 03:26:10;;;;;;;14.35;5.05;;;;;;;-142.57;65.78;115900.28;4998323;28;20060;-82
2023/08/18 03:28:37;;;;;;;16.83;5.30;;;;;;;-142.57;65.92;115900.28;5015296;28;20026;-83
2023/08/18 03:31:08;;;;;;;12.10;4.88;;;;;;;-142.57;66.38;115900.28;5017423;28;20046;-84
2023/08/18 03:33:34;;;;;;;12.13;5.10;;;;;;;-142.57;67.30;115900.28;5018501;28;20037;-85
2023/08/18 03:36:03;;;;;;;16.70;5.45;;;;;;;-142.57;68.65;115900.28;5017979;28;20037;-84
2023/08/18 03:38:29;;;;;;;15.40;5.03;;;;;;;-142.57;68.48;115900.28;5020370;28;20026;-83
2023/08/18 03:41:06;;;;;;;20.83;5.32;;;;;;;-142.57;68.97;115900.28;5014690;28;20029;-86
2023/08/18 03:43:33;;;;;;;13.20;5.25;;;;;;;-142.57;68.39;115900.28;5015929;28;20037;-84
2023/08/18 03:46:02;;;;;;;18.88;6.38;;;;;;;-142.57;68.59;115900.28;5015542;28;20069;-83
2023/08/18 03:48:28;;;;;;;16.35;6.50;;;;;;;-142.57;68.79;115900.28;5014479;28;20497;-83
2023/08/18 03:50:57;;;;;;;11.25;5.57;;;;;;;-142.57;69.26;115900.28;5016130;28;20478;-85
2023/08/18 03:53:23;;;;;;;15.52;5.95;;;;;;;-142.57;70.34;115900.28;5014774;28;20133;-84
2023/08/18 03:55:50;;;;;;;10.18;5.85;;;;;;;-142.57;70.16;115900.28;5013757;28;20425;-83
2023/08/18 03:58:16;;;;;;;13.25;6.15;;;;;;;-142.57;69.97;115900.28;5013055;28;20033;-83
2023/08/18 04:00:41;;;;;;;16.08;6.15;;;;;;;-142.57;69.86;115900.28;5014504;28;20038;-84
2023/08/18 04:03:08;;;;;;;17.52;6.30;;;;;;;-142.57;69.22;115900.28;5012752;28;20049;-85
2023/08/18 04:05:33;;;;;;;11.52;5.93;;;;;;;-142.57;69.66;115900.28;5013318;28;20030;-82
2023/08/18 04:07:59;;;;;;;14.38;5.53;;;;;;;-142.57;70.45;115900.28;5014022;28;20050;-81
2023/08/18 04:10:24;;;;;;;16.08;5.95;;;;;;;-142.57;71.05;115900.28;5012583;28;20084;-83
2023/08/18 04:12:50;;;;;;;17.08;6.18;;;;;;;-142.57;71.76;115900.28;5012784;28;20042;-83
2023/08/18 04:15:16;;;;;;;16.52;5.90;;;;;;;-142.57;72.56;115900.28;5013837;28;20042;-83
2023/08/18 04:17:42;;;;;;;14.77;5.63;;;;;;;-142.57;72.21;115900.28;5012570;28;20057;-83
2023/08/18 04:20:09;;;;;;;15.77;6.25;;;;;;;-142.57;72.31;115900.28;5013136;28;20544;-83
2023/08/18 04:22:34;;;;;;;9.02;5.72;;;;;;;-142.57;71.93;115900.28;5016266;28;20034;-84
2023/08/18 04:25:00;;;;;;;20.15;6.82;;;;;;;-142.57;72.46;115900.28;5000057;28;20040;-84
2023/08/18 04:27:26;;;;;;;15.05;6.32;;;;;;;-142.57;71.69;115900.28;5016645;28;20046;-82
2023/08/18 04:29:52;;;;;;;16.92;6.85;;;;;;;-142.57;71.68;115900.28;5016109;28;20061;-82
2023/08/18 04:32:21;;;;;;;16.15;6.70;;;;;;;-142.57;72.28;115900.28;5017393;28;20057;-84
2023/08/18 04:34:50;;;;;;;;;;;;;;;-142.57;72.62;115900.28;5019908;28;20060;-82
2023/08/18 04:37:16;;;;;;;12.00;5.32;;;;;;;-142.57;72.31;115900.28;5024146;28;20411;-83
2023/08/18 04:39:42;;;;;;;16.73;6.20;;;;;;;-142.57;72.29;115900.28;5027783;28;20037;-81
2023/08/18 04:42:08;;;;;;;12.23;6.05;;;;;;;-142.57;72.79;115900.28;5029577;28;20034;-81
2023/08/18 04:44:34;;;;;;;16.02;6.28;;;;;;;-142.57;72.40;115900.28;5055798;28;20026;-84
2023/08/18 04:47:06;;;;;;;11.15;6.10;;;;;;;-142.57;72.95;115900.28;5037239;28;20033;-83
2023/08/18 04:49:32;;;;;;;10.60;6.20;;;;;;;-142.57;73.19;115900.28;5019917;28;20084;-85
2023/08/18 04:51:57;;;;;;;14.70;6.03;;;;;;;-142.57;71.71;115900.28;5017044;28;20528;-84
2023/08/18 04:54:23;;;;;;;13.18;6.10;;;;;;;-142.57;71.63;115900.28;5016839;28;20033;-83
2023/08/18 04:56:57;;;;;;;14.65;6.50;;;;;;;-142.57;72.25;115900.28;5019441;28;21208;-81
2023/08/18 04:59:23;;;;;;;11.55;6.43;;;;;;;-142.57;72.79;115900.28;5020314;28;20360;-83
2023/08/18 05:01:51;;;;;;;21.65;5.95;;;;;;;-142.57;72.32;115900.28;5000051;28;20046;-82
2023/08/18 05:04:17;;;;;;;14.50;6.50;;;;;;;-142.57;72.95;115900.28;5017721;28;20076;-85
2023/08/18 05:06:46;;;;;;;11.27;6.30;;;;;;;-142.57;72.10;115900.28;5005390;28;20034;-86
2023/08/18 05:09:11;;;;;;;13.80;6.53;;;;;;;-142.57;71.52;115900.28;5022174;28;20089;-80
2023/08/18 05:11:37;;;;;;;14.95;6.55;;;;;;;-142.57;70.84;115900.28;5029048;28;20122;-85
2023/08/18 05:14:03;;;;;;;13.00;6.18;;;;;;;-142.57;70.91;115900.28;5034029;28;20030;-84
2023/08/18 05:16:28;;;;;;;12.38;6.47;;;;;;;-142.57;71.17;115900.28;5015329;28;20054;-86
2023/08/18 05:18:54;;;;;;;11.35;6.78;;;;;;;-142.57;70.00;115900.28;5032352;28;20030;-84
2023/08/18 05:21:19;;;;;;;17.95;6.47;;;;;;;-142.57;68.75;115900.28;5032326;28;20038;-86
2023/08/18 05:23:45;;;;;;;14.40;6.68;;;;;;;-142.57;68.18;115900.28;5031058;28;20111;-84
2023/08/18 05:26:11;;;;;;;16.73;6.25;;;;;;;-142.57;67.43;115900.28;5028530;28;20048;-83
2023/08/18 05:28:36;;;;;;;10.63;5.82;;;;;;;-142.57;67.69;115900.28;5033240;28;20030;-81
2023/08/18 05:31:02;;;;;;;17.13;6.15;;;;;;;-142.57;66.64;115900.28;5034202;28;20042;-83
2023/08/18 05:33:27;;;;;;;10.65;6.10;;;;;;;-142.57;64.66;115900.28;5033004;28;20034;-82
2023/08/18 05:35:57;;;;;;;14.77;6.25;;;;;;;-142.57;65.14;115900.28;5033417;28;20057;-82
2023/08/18 05:38:26;;;;;;;15.30;5.88;;;;;;;-142.57;63.82;115900.28;5031143;28;20053;-85
2023/08/18 05:40:55;;;;;;;13.32;5.72;;;;;;;-142.57;63.10;115900.28;5030564;28;20034;-83
2023/08/18 05:43:23;;;;;;;15.82;5.90;;;;;;;-142.57;63.75;115900.28;5026902;28;20033;-83
2023/08/18 05:45:49;;;;;;;12.40;6.15;;;;;;;-142.57;61.58;115900.28;5017849;28;20377;-83
2023/08/18 05:48:14;;;;;;;18.63;6.53;;;;;;;-142.57;61.45;115900.28;5017615;28;20034;-83
2023/08/18 05:50:40;;;;;;;17.77;6.63;;;;;;;-142.57;62.54;115900.28;5016905;28;20158;-85
2023/08/18 05:53:06;;;;;;;16.38;6.50;;;;;;;-142.57;61.16;115900.28;5017850;28;20033;-84
2023/08/18 05:55:32;;;;;;;17.77;5.05;;;;;;;-142.57;60.13;115900.28;5021228;28;20121;-84
2023/08/18 05:58:03;;;;;;;24.27;6.07;;;;;;;-142.57;59.92;115900.28;5021470;28;20030;-84
2023/08/18 06:00:30;;;;;;;17.80;5.88;;;;;;;-142.57;60.05;115900.28;5017797;28;20088;-80
2023/08/18 06:02:56;;;;;;;14.55;5.78;;;;;;;-142.57;58.18;115900.28;5018151;28;20076;-84
2023/08/18 06:05:31;;;;;;;24.65;5.85;;;;;;;-142.57;58.87;115900.28;5016654;28;20041;-83
2023/08/18 06:07:57;;;;;;;17.83;5.95;;;;;;;-142.57;58.93;115900.28;5019289;28;20037;-83
2023/08/18 06:10:23;;;;;;;19.50;6.00;;;;;;;-142.57;56.24;115900.28;5016272;28;20030;-87
2023/08/18 06:12:49;;;;;;;15.43;6.10;;;;;;;-142.57;55.09;115900.28;5016652;28;20099;-82
2023/08/18 06:15:20;;;;;;;17.85;5.65;;;;;;;-142.57;53.14;115900.28;4999608;28;20519;-83
2023/08/18 06:17:46;;;;;;;13.93;5.05;;;;;;;-142.57;53.14;115900.28;5015273;28;20082;-84
2023/08/18 06:20:12;;;;;;;18.67;5.30;;;;;;;-142.57;51.56;115900.28;5015645;28;20473;-85
2023/08/18 06:22:38;;;;;;;15.10;5.75;;;;;;;-142.57;52.10;115900.28;5014630;28;20045;-85
2023/08/18 06:25:07;;;;;;;19.60;5.30;;;;;;;-142.57;48.83;115900.28;5016498;28;20034;-83
2023/08/18 06:27:33;;;;;;;18.13;5.80;;;;;;;-142.57;50.18;115900.28;5017117;28;20586;-84
2023/08/18 06:29:59;;;;;;;18.70;6.28;;;;;;;-142.57;50.36;115900.28;5018186;28;20057;-85
2023/08/18 06:32:25;;;;;;;16.17;6.35;;;;;;;-142.57;50.64;115900.28;5017561;28;20061;-83
2023/08/18 06:34:53;;;;;;;15.07;7.00;;;;;;;-142.57;49.70;115900.28;4998889;28;20393;-81
2023/08/18 06:37:19;;;;;;;19.55;6.07;;;;;;;-142.57;49.57;115900.28;5015741;28;20045;-80
2023/08/18 06:39:45;;;;;;;11.00;5.70;;;;;;;-142.57;48.09;115900.28;5015329;28;20038;-82
2023/08/18 06:42:11;;;;;;;11.80;6.20;;;;;;;-142.57;47.23;115900.28;5015480;28;20165;-81
2023/08/18 06:44:37;;;;;;;25.17;6.50;;;;;;;-142.57;46.99;115900.28;5015087;28;20111;-83
2023/08/18 06:47:03;;;;;;;16.25;6.90;;;;;;;-142.57;46.20;115900.28;5015811;28;20069;-81
2023/08/18 06:49:28;;;;;;;15.23;6.50;;;;;;;-142.57;46.32;115900.28;5015567;28;20392;-81
2023/08/18 06:51:54;;;;;;;20.42;5.88;;;;;;;-142.57;45.69;115900.28;5015656;28;20029;-82
2023/08/18 06:54:21;;;;;;;17.00;6.50;;;;;;;-142.57;45.03;115900.28;5015111;28;20034;-83
2023/08/18 06:56:46;;;;;;;17.85;6.25;;;;;;;-142.57;46.24;115900.28;5013740;28;20408;-81
2023/08/18 06:59:13;;;;;;;15.40;6.68;;;;;;;-142.57;46.60;115900.28;5016021;28;20030;-80
2023/08/18 07:01:39;;;;;;;15.18;6.72;;;;;;;-142.57;46.15;115900.28;5015849;28;20057;-82
2023/08/18 07:04:07;;;;;;;10.63;6.93;;;;;;;-142.57;46.14;115900.28;5015760;28;20030;-81
2023/08/18 07:06:33;;;;;;;14.57;6.75;;;;;;;-142.57;45.99;115900.28;5015694;28;20029;-81
2023/08/18 07:08:59;;;;;;;19.42;8.60;;;;;;;-142.57;44.70;115900.28;5016404;28;20117;-78
2023/08/18 07:11:24;;;;;;;21.60;8.93;;;;;;;-142.57;44.84;115900.28;5023203;28;20061;-81
2023/08/18 07:13:53;;;;;;;17.70;8.48;;;;;;;-142.57;45.09;115900.28;5025377;28;20038;-82
2023/08/18 07:16:18;;;;;;;19.63;7.63;;;;;;;-142.57;43.08;115900.28;5026147;28;20026;-85
2023/08/18 07:18:44;;;;;;;20.38;8.98;;;;;;;-142.57;42.92;115900.28;5021949;28;20132;-82
2023/08/18 07:21:09;;;;;;;21.52;8.50;;;;;;;-142.57;43.71;115900.28;5022665;28;20113;-81
2023/08/18 07:23:35;;;;;;;21.00;8.80;;;;;;;-142.57;42.95;115900.28;5023550;28;20046;-81
2023/08/18 07:26:03;;;;;;;19.08;8.25;;;;;;;-142.57;43.01;115900.28;5024903;28;20092;-83
2023/08/18 07:28:28;;;;;;;17.15;8.52;;;;;;;-142.57;43.07;115900.28;5021229;28;20032;-83
2023/08/18 07:30:54;;;;;;;20.10;7.72;;;;;;;-142.57;42.46;115900.28;5022547;28;20112;-82
2023/08/18 07:33:19;;;;;;;21.50;7.18;;;;;;;-142.57;41.54;115900.28;5021844;28;20048;-84
2023/08/18 07:35:46;;;;;;;14.85;7.68;;;;;;;-142.57;39.53;115900.28;5019921;28;20457;-81
2023/08/18 07:38:11;;;;;;;16.00;7.57;;;;;;;-142.57;39.84;115900.28;5021740;28;20034;-81
2023/08/18 07:40:37;;;;;;;23.90;7.95;;;;;;;-142.57;39.64;115900.28;5021063;28;20102;-79
2023/08/18 07:43:03;;;;;;;19.65;8.45;;;;;;;-142.57;40.39;115900.28;5020823;28;20061;-81
2023/08/18 07:45:29;;;;;;;20.77;7.70;;;;;;;-142.57;39.48;115900.28;5021064;28;20048;-80
2023/08/18 07:47:55;;;;;;;23.38;7.70;;;;;;;-142.57;39.66;115900.28;5021418;28;20481;-81
2023/08/18 07:50:21;;;;;;;16.35;8.10;;;;;;;-142.57;38.90;115900.28;5022483;28;20026;-78
2023/08/18 07:52:47;;;;;;;12.52;7.43;;;;;;;-142.57;38.88;115900.28;5017083;28;20101;-79
2023/08/18 07:55:13;;;;;;;18.77;6.82;;;;;;;-142.57;38.36;115900.28;5014065;28;20042;-81
2023/08/18 07:57:39;;;;;;;15.55;6.70;;;;;;;-142.57;38.05;115900.28;5016219;28;20101;-81
2023/08/18 08:00:16;;;;;;;11.32;7.15;;;;;;;-142.57;38.23;115900.28;5013863;28;20037;-80
2023/08/18 08:02:43;;;;;;;12.13;6.05;;;;;;;-142.57;37.04;115900.28;5015015;28;20041;-81
2023/08/18 08:05:08;;;;;;;14.57;6.32;;;;;;;-142.57;36.49;115900.28;5025394;28;20026;-78
2023/08/18 08:07:34;;;;;;;14.25;6.70;;;;;;;-142.57;36.11;115900.28;5021244;28;20045;-80
2023/08/18 08:10:03;;;;;;;14.20;5.65;;;;;;;-142.57;35.90;115900.28;5013687;28;20065;-80
2023/08/18 08:12:34;;;;;;;14.05;6.80;;;;;;;-142.57;37.66;115900.28;5013950;28;20030;-81
2023/08/18 08:15:00;;;;;;;10.47;6.67;;;;;;;-142.57;37.17;115900.28;5013233;28;20037;-85
2023/08/18 08:17:26;;;;;;;16.10;8.00;;;;;;;-142.57;38.28;115900.28;5014177;28;20419;-81
2023/08/18 08:19:52;;;;;;;16.08;7.65;;;;;;;-142.57;37.94;115900.28;5013910;28;20068;-82
2023/08/18 08:22:17;;;;;;;15.93;8.10;;;;;;;-142.57;37.34;115900.28;5012735;28;20038;-81
2023/08/18 08:24:43;;;;;;;11.35;6.68;;;;;;;-142.57;37.19;115900.28;5014272;28;20157;-82
2023/08/18 08:27:08;;;;;;;12.40;7.50;;;;;;;-142.57;37.91;115900.28;5013798;28;20026;-80
2023/08/18 08:29:34;;;;;;;15.32;7.07;;;;;;;-142.57;38.47;115900.28;5017285;28;20034;-81
2023/08/18 08:32:00;;;;;;;21.25;9.60;;;;;;;-142.57;39.75;115900.28;5018269;28;20045;-83
2023/08/18 08:34:26;;;;;;;17.75;8.30;;;;;;;-142.57;39.27;115900.28;5018238;28;20042;-81
2023/08/18 08:36:52;;;;;;;12.88;7.43;;;;;;;-142.57;38.31;115900.28;5017394;28;20114;-83
2023/08/18 08:39:17;;;;;;;16.48;6.35;;;;;;;-142.57;36.91;115900.28;4997948;28;20113;-84
2023/08/18 08:41:43;;;;;;;16.85;6.13;;;;;;;-142.57;36.56;115900.28;5013563;28;20383;-84
2023/08/18 08:44:08;;;;;;;15.63;5.93;;;;;;;-142.57;35.68;115900.28;5013096;28;20042;-80
2023/08/18 08:46:37;;;;;;;12.90;5.40;;;;;;;-142.57;35.73;115900.28;5013286;28;20029;-80
2023/08/18 08:49:05;;;;;;;13.40;7.97;;;;;;;-142.57;35.02;115900.28;5012807;28;20395;-81
2023/08/18 08:51:37;;;;;;;12.20;4.88;;;;;;;-142.57;35.62;115900.28;5013285;28;20108;-80
2023/08/18 08:54:06;;;;;;;10.88;5.82;;;;;;;-142.57;35.07;115900.28;5012723;28;20044;-81
2023/08/18 08:56:34;;;;;;;9.48;6.38;;;;;;;-142.57;34.63;115900.28;5013071;28;20034;-80
2023/08/18 08:59:00;;;;;;;14.52;7.20;;;;;;;-142.57;35.02;115900.28;5013154;28;20061;-80
2023/08/18 09:01:26;;;;;;;18.70;7.82;;;;;;;-142.57;35.47;115900.28;5012128;28;20040;-82
2023/08/18 09:03:52;;;;;;;12.60;6.78;;;;;;;-142.57;35.47;115900.28;5012859;28;20129;-81
2023/08/18 09:06:17;;;;;;;16.05;7.15;;;;;;;-142.57;35.35;115900.28;5013071;28;20161;-82
2023/08/18 09:08:43;;;;;;;9.73;5.18;;;;;;;-142.57;34.67;115900.28;5015518;28;20072;-80
2023/08/18 09:11:09;;;;;;;18.58;5.78;;;;;;;-142.57;34.49;115900.28;5016347;28;20491;-80
2023/08/18 09:13:35;;;;;;;13.73;5.93;;;;;;;-142.57;33.77;115900.28;5016354;28;20038;-81
2023/08/18 09:16:06;;;;;;;8.00;6.20;;;;;;;-142.57;34.00;115900.28;5016397;28;20539;-82
2023/08/18 09:18:33;;;;;;;10.35;6.15;;;;;;;-142.57;33.76;115900.28;5016282;28;20116;-81
2023/08/18 09:21:00;;;;;;;11.38;5.15;;;;;;;-142.57;33.05;115900.28;5016549;28;20049;-84
2023/08/18 09:23:27;;;;;;;10.15;5.85;;;;;;;-142.57;32.04;115900.28;5015351;28;20061;-82
2023/08/18 09:26:00;;;;;;;12.13;6.18;;;;;;;-142.57;31.63;115900.28;5015879;28;20069;-83
2023/08/18 09:28:26;;;;;;;9.38;4.70;;;;;;;-142.57;31.74;115900.28;5015063;28;20030;-83
2023/08/18 09:30:52;;;;;;;16.05;5.97;;;;;;;-142.57;32.05;115900.28;5016283;28;20120;-82
2023/08/18 09:33:17;;;;;;;16.85;6.50;;;;;;;-142.57;32.82;115900.28;5015814;28;20477;-82
2023/08/18 09:35:43;;;;;;;7.70;5.75;;;;;;;-142.57;32.74;115900.28;5015894;28;20038;-84
2023/08/18 09:38:17;;;;;;;13.02;5.60;;;;;;;-142.57;33.29;115900.28;5016308;28;20168;-84
2023/08/18 09:40:42;;;;;;;19.92;6.75;;;;;;;-142.57;33.65;115900.28;5016128;28;20026;-83
2023/08/18 09:43:08;;;;;;;15.40;5.53;;;;;;;-142.57;33.84;115900.28;5016517;28;20540;-83
2023/08/18 09:45:34;;;;;;;14.35;5.70;;;;;;;-142.57;34.96;115900.28;5015752;28;20036;-85
2023/08/18 09:48:01;;;;;;;11.75;5.47;;;;;;;-142.57;34.95;115900.28;5019868;28;20044;-85
2023/08/18 09:50:30;;;;;;;11.18;6.43;;;;;;;-142.57;34.42;115900.28;5018839;28;20049;-82
2023/08/18 09:52:57;;;;;;;13.43;6.32;;;;;;;-142.57;33.54;115900.28;5018747;28;20065;-82
2023/08/18 09:55:37;;;;;;;10.32;6.40;;;;;;;-142.57;33.09;115900.28;5015803;28;20088;-82
2023/08/18 09:58:27;;;;;;;11.13;5.55;;;;;;;-142.57;33.57;115900.28;5014443;28;20022;-81
2023/08/18 10:00:57;;;;;;;13.00;5.40;;;;;;;-142.57;34.19;115900.28;5016019;28;20115;-83
2023/08/18 10:03:28;;;;;;;19.50;6.60;;;;;;;-142.57;33.35;115900.28;5015592;28;20484;-83
2023/08/18 10:05:53;;;;;;;11.32;7.82;;;;;;;-142.57;33.29;115900.28;5015532;28;20124;-81
2023/08/18 10:08:23;;;;;;;22.52;8.32;;;;;;;-142.57;33.86;115900.28;5014173;28;20125;-83
2023/08/18 10:10:50;;;;;;;12.80;8.07;;;;;;;-142.57;33.05;115900.28;5016046;28;20057;-86
2023/08/18 10:13:16;;;;;;;16.40;7.70;;;;;;;-142.57;33.55;115900.28;4998266;28;20060;-83
2023/08/18 10:15:43;;;;;;;16.02;7.10;;;;;;;-142.57;33.24;115900.28;5014384;28;20123;-83
2023/08/18 10:18:11;;;;;;;16.23;5.63;;;;;;;-142.57;33.57;115900.28;5016287;28;20110;-84
2023/08/18 10:20:49;;;;;;;9.88;6.13;;;;;;;-142.57;33.05;115900.28;5019865;28;20089;-88
2023/08/18 10:23:15;;;;;;;20.23;5.72;;;;;;;-142.57;33.01;115900.28;5020175;28;20045;-87
2023/08/18 10:25:43;;;;;;;20.23;6.68;;;;;;;-142.57;32.37;115900.28;5018305;28;20069;-86
2023/08/18 10:28:10;;;;;;;21.48;7.00;;;;;;;-142.57;32.86;115900.28;5016721;28;20046;-87
2023/08/18 10:30:35;;;;;;;14.90;7.82;;;;;;;-142.57;34.07;115900.28;5020504;28;20014;-86
2023/08/18 10:33:08;;;;;;;23.40;6.72;;;;;;;-142.57;33.80;115900.28;5020565;28;20121;-87
2023/08/18 10:35:39;;;;;;;12.50;6.47;;;;;;;-142.57;33.14;115900.28;5018151;28;20080;-88
2023/08/18 10:38:05;;;;;;;12.05;7.15;;;;;;;-142.57;32.02;115900.28;5020018;28;20112;-89
2023/08/18 10:40:33;;;;;;;14.38;6.15;;;;;;;-142.57;33.10;115900.28;5020098;28;20060;-87
2023/08/18 10:43:08;;;;;;;19.42;5.80;;;;;;;-142.57;33.38;115900.28;4994820;28;20033;-86
2023/08/18 10:45:34;;;;;;;12.55;6.25;;;;;;;-142.57;32.75;115900.28;5016470;28;20038;-88
2023/08/18 10:48:02;;;;;;;14.30;7.20;;;;;;;-142.57;32.97;115900.28;5021593;28;20030;-86
2023/08/18 10:50:30;;;;;;;11.68;7.45;;;;;;;-142.57;33.37;115900.28;5016382;28;20033;-89
2023/08/18 10:52:56;;;;;;;16.60;7.53;;;;;;;-142.57;34.60;115900.28;4994024;28;20157;-85
2023/08/18 10:55:26;;;;;;;13.75;7.07;;;;;;;-142.57;32.97;115900.28;5017319;28;20057;-87
2023/08/18 10:57:52;;;;;;;13.68;6.68;;;;;;;-142.57;33.33;115900.28;4995961;28;20041;-85
2023/08/18 11:00:18;;;;;;;11.57;6.95;;;;;;;-142.57;33.69;115900.28;5035955;28;20420;-85
2023/08/18 11:02:52;;;;;;;12.73;7.25;;;;;;;-142.57;33.95;115900.28;5019351;28;20087;-87